sensor_id;sensor_type;location;lat;lon;timestamp;pressure;altitude;pressure_sealevel;temperature;humidity
48630;BME280;34426;52.180;4.462;2024-02-23T00:01:35;98701.50;;;5.88;100.00
48630;BME280;34426;52.180;4.462;2024-02-23T00:04:00;98694.03;;;5.89;100.00
48630;BME280;34426;52.180;4.462;2024-02-23T00:06:26;98713.16;;;5.90;100.00
48630;BME280;34426;52.180;4.462;2024-02-23T00:08:51;98705.66;;;5.91;100.00
48630;BME280;34426;52.180;4.462;2024-02-23T00:11:16;98700.41;;;5.89;100.00
48630;BME280;34426;52.180;4.462;2024-02-23T00:13:43;98710.66;;;5.89;100.00
48630;BME280;34426;52.180;4.462;2024-02-23T00:16:09;98716.75;;;5.91;100.00
48630;BME280;34426;52.180;4.462;2024-02-23T00:18:34;98733.13;;;5.92;100.00
48630;BME280;34426;52.180;4.462;2024-02-23T00:20:59;98719.53;;;5.91;100.00
48630;BME280;34426;52.180;4.462;2024-02-23T00:23:25;98740.31;;;5.88;100.00
48630;BME280;34426;52.180;4.462;2024-02-23T00:25:50;98749.50;;;5.89;100.00
48630;BME280;34426;52.180;4.462;2024-02-23T00:28:16;98736.44;;;5.94;100.00
48630;BME280;34426;52.180;4.462;2024-02-23T00:30:43;98750.84;;;5.96;100.00
48630;BME280;34426;52.180;4.462;2024-02-23T00:33:08;98743.63;;;5.95;100.00
48630;BME280;34426;52.180;4.462;2024-02-23T00:35:33;98741.41;;;5.97;100.00
48630;BME280;34426;52.180;4.462;2024-02-23T00:37:59;98713.66;;;5.97;100.00
48630;BME280;34426;52.180;4.462;2024-02-23T00:40:25;98747.50;;;5.99;100.00
48630;BME280;34426;52.180;4.462;2024-02-23T00:42:50;98750.00;;;5.96;100.00
48630;BME280;34426;52.180;4.462;2024-02-23T00:45:16;98755.56;;;5.96;100.00
48630;BME280;34426;52.180;4.462;2024-02-23T00:47:42;98767.25;;;5.93;100.00
48630;BME280;34426;52.180;4.462;2024-02-23T00:50:09;98766.69;;;5.91;100.00
48630;BME280;34426;52.180;4.462;2024-02-23T00:52:34;98800.28;;;5.89;100.00
48630;BME280;34426;52.180;4.462;2024-02-23T00:55:00;98756.44;;;5.91;100.00
48630;BME280;34426;52.180;4.462;2024-02-23T00:57:25;98768.59;;;5.95;100.00
48630;BME280;34426;52.180;4.462;2024-02-23T00:59:51;98770.56;;;5.95;100.00
48630;BME280;34426;52.180;4.462;2024-02-23T01:02:16;98777.19;;;5.99;100.00
48630;BME280;34426;52.180;4.462;2024-02-23T01:04:43;98784.09;;;6.02;100.00
48630;BME280;34426;52.180;4.462;2024-02-23T01:07:08;98784.72;;;5.93;100.00
48630;BME280;34426;52.180;4.462;2024-02-23T01:09:34;98785.00;;;5.87;100.00
48630;BME280;34426;52.180;4.462;2024-02-23T01:12:00;98809.72;;;5.83;100.00
48630;BME280;34426;52.180;4.462;2024-02-23T01:14:25;98792.25;;;5.83;98.81
48630;BME280;34426;52.180;4.462;2024-02-23T01:16:51;98808.59;;;5.84;99.23
48630;BME280;34426;52.180;4.462;2024-02-23T01:19:16;98792.53;;;5.81;99.60
48630;BME280;34426;52.180;4.462;2024-02-23T01:21:43;98809.16;;;5.81;98.06
48630;BME280;34426;52.180;4.462;2024-02-23T01:24:08;98796.97;;;5.82;98.62
48630;BME280;34426;52.180;4.462;2024-02-23T01:26:34;98808.59;;;5.84;96.40
48630;BME280;34426;52.180;4.462;2024-02-23T01:28:59;98801.69;;;5.82;96.88
48630;BME280;34426;52.180;4.462;2024-02-23T01:31:25;98824.16;;;5.80;95.18
48630;BME280;34426;52.180;4.462;2024-02-23T01:33:50;98823.59;;;5.83;94.08
48630;BME280;34426;52.180;4.462;2024-02-23T01:36:15;98818.31;;;5.82;95.02
48630;BME280;34426;52.180;4.462;2024-02-23T01:38:42;98829.69;;;5.80;96.17
48630;BME280;34426;52.180;4.462;2024-02-23T01:41:08;98814.72;;;5.81;96.30
48630;BME280;34426;52.180;4.462;2024-02-23T01:43:33;98831.63;;;5.85;96.63
48630;BME280;34426;52.180;4.462;2024-02-23T01:45:59;98822.72;;;5.88;97.64
48630;BME280;34426;52.180;4.462;2024-02-23T01:48:25;98809.16;;;5.81;100.00
48630;BME280;34426;52.180;4.462;2024-02-23T01:50:53;98816.19;;;5.68;100.00
48630;BME280;34426;52.180;4.462;2024-02-23T01:53:19;98821.25;;;5.61;100.00
48630;BME280;34426;52.180;4.462;2024-02-23T01:55:47;98820.97;;;5.58;100.00
48630;BME280;34426;52.180;4.462;2024-02-23T01:58:13;98835.13;;;5.56;100.00
48630;BME280;34426;52.180;4.462;2024-02-23T02:00:39;98840.38;;;5.58;100.00
48630;BME280;34426;52.180;4.462;2024-02-23T02:03:04;98828.75;;;5.56;100.00
48630;BME280;34426;52.180;4.462;2024-02-23T02:05:30;98834.28;;;5.56;100.00
48630;BME280;34426;52.180;4.462;2024-02-23T02:07:55;98843.72;;;5.55;100.00
48630;BME280;34426;52.180;4.462;2024-02-23T02:10:21;98839.00;;;5.55;98.60
48630;BME280;34426;52.180;4.462;2024-02-23T02:12:48;98841.75;;;5.60;98.54
48630;BME280;34426;52.180;4.462;2024-02-23T02:15:13;98842.00;;;5.64;99.02
48630;BME280;34426;52.180;4.462;2024-02-23T02:17:39;98840.59;;;5.66;99.33
48630;BME280;34426;52.180;4.462;2024-02-23T02:20:05;98843.06;;;5.68;97.55
48630;BME280;34426;52.180;4.462;2024-02-23T02:22:32;98841.41;;;5.72;97.98
48630;BME280;34426;52.180;4.462;2024-02-23T02:24:58;98838.63;;;5.72;98.39
48630;BME280;34426;52.180;4.462;2024-02-23T02:27:23;98852.78;;;5.71;99.29
48630;BME280;34426;52.180;4.462;2024-02-23T02:29:51;98847.22;;;5.71;99.10
48630;BME280;34426;52.180;4.462;2024-02-23T02:32:16;98855.25;;;5.72;99.19
48630;BME280;34426;52.180;4.462;2024-02-23T02:34:42;98855.25;;;5.72;99.48
48630;BME280;34426;52.180;4.462;2024-02-23T02:37:07;98854.69;;;5.75;99.91
48630;BME280;34426;52.180;4.462;2024-02-23T02:39:33;98849.16;;;5.75;100.00
48630;BME280;34426;52.180;4.462;2024-02-23T02:41:59;98854.69;;;5.75;100.00
48630;BME280;34426;52.180;4.462;2024-02-23T02:44:24;98844.44;;;5.76;100.00
48630;BME280;34426;52.180;4.462;2024-02-23T02:46:51;98850.81;;;5.76;99.82
48630;BME280;34426;52.180;4.462;2024-02-23T02:49:16;98836.94;;;5.76;100.00
48630;BME280;34426;52.180;4.462;2024-02-23T02:51:42;98847.50;;;5.74;100.00
48630;BME280;34426;52.180;4.462;2024-02-23T02:54:07;98853.34;;;5.67;100.00
48630;BME280;34426;52.180;4.462;2024-02-23T02:56:32;98852.31;;;5.53;100.00
48630;BME280;34426;52.180;4.462;2024-02-23T02:58:58;98853.19;;;5.44;100.00
48630;BME280;34426;52.180;4.462;2024-02-23T03:01:23;98852.09;;;5.40;100.00
48630;BME280;34426;52.180;4.462;2024-02-23T03:03:50;98857.66;;;5.34;100.00
48630;BME280;34426;52.180;4.462;2024-02-23T03:06:15;98847.13;;;5.31;100.00
48630;BME280;34426;52.180;4.462;2024-02-23T03:08:41;98853.78;;;5.30;100.00
48630;BME280;34426;52.180;4.462;2024-02-23T03:11:07;98853.50;;;5.32;100.00
48630;BME280;34426;52.180;4.462;2024-02-23T03:13:32;98849.06;;;5.36;100.00
48630;BME280;34426;52.180;4.462;2024-02-23T03:15:58;98859.31;;;5.41;100.00
48630;BME280;34426;52.180;4.462;2024-02-23T03:21:28;98853.19;;;5.44;100.00
48630;BME280;34426;52.180;4.462;2024-02-23T03:23:53;98858.75;;;5.44;100.00
48630;BME280;34426;52.180;4.462;2024-02-23T03:26:19;98853.75;;;5.41;100.00
48630;BME280;34426;52.180;4.462;2024-02-23T03:28:44;98862.38;;;5.34;100.00
48630;BME280;34426;52.180;4.462;2024-02-23T03:31:09;98868.19;;;5.32;100.00
48630;BME280;34426;52.180;4.462;2024-02-23T03:33:35;98865.97;;;5.34;100.00
48630;BME280;34426;52.180;4.462;2024-02-23T03:36:00;98868.19;;;5.38;99.14
48630;BME280;34426;52.180;4.462;2024-02-23T03:38:27;98875.94;;;5.41;99.10
48630;BME280;34426;52.180;4.462;2024-02-23T03:40:52;98874.28;;;5.40;99.45
48630;BME280;34426;52.180;4.462;2024-02-23T03:43:18;98878.16;;;5.44;98.79
48630;BME280;34426;52.180;4.462;2024-02-23T03:45:43;98877.31;;;5.48;99.53
48630;BME280;34426;52.180;4.462;2024-02-23T03:48:09;98867.59;;;5.51;99.27
48630;BME280;34426;52.180;4.462;2024-02-23T03:50:34;98867.59;;;5.51;100.00
48630;BME280;34426;52.180;4.462;2024-02-23T03:53:00;98861.50;;;5.49;99.72
48630;BME280;34426;52.180;4.462;2024-02-23T03:55:26;98868.97;;;5.48;100.00
48630;BME280;34426;52.180;4.462;2024-02-23T03:57:52;98875.66;;;5.42;100.00
48630;BME280;34426;52.180;4.462;2024-02-23T04:00:17;98869.88;;;5.33;100.00
48630;BME280;34426;52.180;4.462;2024-02-23T04:02:43;98885.69;;;5.23;100.00
48630;BME280;34426;52.180;4.462;2024-02-23T04:05:09;98881.31;;;5.17;100.00
48630;BME280;34426;52.180;4.462;2024-02-23T04:07:34;98873.28;;;5.10;100.00
48630;BME280;34426;52.180;4.462;2024-02-23T04:10:00;98877.16;;;5.04;100.00
48630;BME280;34426;52.180;4.462;2024-02-23T04:12:27;98888.81;;;5.01;100.00
48630;BME280;34426;52.180;4.462;2024-02-23T04:14:52;98895.19;;;4.96;100.00
48630;BME280;34426;52.180;4.462;2024-02-23T04:17:18;98884.38;;;4.95;100.00
48630;BME280;34426;52.180;4.462;2024-02-23T04:19:43;98878.84;;;4.90;100.00
48630;BME280;34426;52.180;4.462;2024-02-23T04:22:09;98886.34;;;4.84;100.00
48630;BME280;34426;52.180;4.462;2024-02-23T04:24:35;98889.94;;;4.80;100.00
48630;BME280;34426;52.180;4.462;2024-02-23T04:27:01;98899.38;;;4.74;100.00
48630;BME280;34426;52.180;4.462;2024-02-23T04:29:27;98894.69;;;4.74;100.00
48630;BME280;34426;52.180;4.462;2024-02-23T04:31:53;98892.19;;;4.67;100.00
48630;BME280;34426;52.180;4.462;2024-02-23T04:34:18;98895.50;;;4.64;100.00
48630;BME280;34426;52.180;4.462;2024-02-23T04:36:44;98896.06;;;4.61;100.00
48630;BME280;34426;52.180;4.462;2024-02-23T04:39:09;98908.81;;;4.62;100.00
48630;BME280;34426;52.180;4.462;2024-02-23T04:41:35;98914.91;;;4.70;100.00
48630;BME280;34426;52.180;4.462;2024-02-23T04:44:00;98904.91;;;4.79;100.00
48630;BME280;34426;52.180;4.462;2024-02-23T04:46:27;98919.28;;;4.86;100.00
48630;BME280;34426;52.180;4.462;2024-02-23T04:48:52;98905.44;;;4.91;100.00
48630;BME280;34426;52.180;4.462;2024-02-23T04:51:18;98910.44;;;4.94;100.00
48630;BME280;34426;52.180;4.462;2024-02-23T04:53:43;98906.84;;;4.88;100.00
48630;BME280;34426;52.180;4.462;2024-02-23T04:56:09;98912.69;;;4.72;100.00
48630;BME280;34426;52.180;4.462;2024-02-23T04:58:34;98900.50;;;4.57;100.00
48630;BME280;34426;52.180;4.462;2024-02-23T05:01:00;98889.41;;;4.47;100.00
48630;BME280;34426;52.180;4.462;2024-02-23T05:03:27;98886.63;;;4.42;100.00
48630;BME280;34426;52.180;4.462;2024-02-23T05:05:52;98891.63;;;4.45;100.00
48630;BME280;34426;52.180;4.462;2024-02-23T05:08:17;98895.22;;;4.46;100.00
48630;BME280;34426;52.180;4.462;2024-02-23T05:10:43;98891.91;;;4.49;100.00
48630;BME280;34426;52.180;4.462;2024-02-23T05:13:08;98908.53;;;4.54;100.00
48630;BME280;34426;52.180;4.462;2024-02-23T05:15:34;98907.69;;;4.58;100.00
48630;BME280;34426;52.180;4.462;2024-02-23T05:17:59;98901.31;;;4.63;100.00
48630;BME280;34426;52.180;4.462;2024-02-23T05:20:26;98901.88;;;4.65;100.00
48630;BME280;34426;52.180;4.462;2024-02-23T05:22:51;98897.72;;;4.67;100.00
48630;BME280;34426;52.180;4.462;2024-02-23T05:25:17;98894.97;;;4.67;100.00
48630;BME280;34426;52.180;4.462;2024-02-23T05:27:42;98893.84;;;4.68;100.00
48630;BME280;34426;52.180;4.462;2024-02-23T05:30:08;98888.03;;;4.70;100.00
48630;BME280;34426;52.180;4.462;2024-02-23T05:32:34;98883.59;;;4.69;100.00
48630;BME280;34426;52.180;4.462;2024-02-23T05:34:59;98879.44;;;4.72;100.00
48630;BME280;34426;52.180;4.462;2024-02-23T05:37:26;98877.22;;;4.74;100.00
48630;BME280;34426;52.180;4.462;2024-02-23T05:39:52;98882.78;;;4.74;100.00
48630;BME280;34426;52.180;4.462;2024-02-23T05:42:17;98883.31;;;4.76;100.00
48630;BME280;34426;52.180;4.462;2024-02-23T05:44:43;98866.13;;;4.79;100.00
48630;BME280;34426;52.180;4.462;2024-02-23T05:47:08;98874.16;;;4.85;100.00
48630;BME280;34426;52.180;4.462;2024-02-23T05:49:34;98869.72;;;4.89;100.00
48630;BME280;34426;52.180;4.462;2024-02-23T05:51:59;98881.91;;;4.93;100.00
48630;BME280;34426;52.180;4.462;2024-02-23T05:54:26;98876.63;;;4.97;100.00
48630;BME280;34426;52.180;4.462;2024-02-23T05:56:52;98874.97;;;5.01;100.00
48630;BME280;34426;52.180;4.462;2024-02-23T05:59:17;98877.16;;;5.04;100.00
48630;BME280;34426;52.180;4.462;2024-02-23T06:01:42;98878.84;;;5.05;100.00
48630;BME280;34426;52.180;4.462;2024-02-23T06:04:08;98879.94;;;5.09;100.00
48630;BME280;34426;52.180;4.462;2024-02-23T06:06:33;98870.78;;;5.14;100.00
48630;BME280;34426;52.180;4.462;2024-02-23T06:08:59;98873.28;;;5.15;100.00
48630;BME280;34426;52.180;4.462;2024-02-23T06:11:26;98871.03;;;5.17;100.00
48630;BME280;34426;52.180;4.462;2024-02-23T06:13:51;98875.22;;;5.15;100.00
48630;BME280;34426;52.180;4.462;2024-02-23T06:16:16;98876.03;;;5.15;100.00
48630;BME280;34426;52.180;4.462;2024-02-23T06:18:42;98870.44;;;5.20;100.00
48630;BME280;34426;52.180;4.462;2024-02-23T06:21:11;98878.75;;;5.20;100.00
48630;BME280;34426;52.180;4.462;2024-02-23T06:23:37;98881.53;;;5.20;100.00
48630;BME280;34426;52.180;4.462;2024-02-23T06:26:03;98876.81;;;5.21;100.00
48630;BME280;34426;52.180;4.462;2024-02-23T06:28:30;98867.66;;;5.25;100.00
48630;BME280;34426;52.180;4.462;2024-02-23T06:30:55;98874.88;;;5.26;100.00
48630;BME280;34426;52.180;4.462;2024-02-23T06:33:20;98870.44;;;5.30;100.00
48630;BME280;34426;52.180;4.462;2024-02-23T06:35:46;98877.63;;;5.31;100.00
48630;BME280;34426;52.180;4.462;2024-02-23T06:38:11;98872.09;;;5.31;100.00
48630;BME280;34426;52.180;4.462;2024-02-23T06:40:37;98873.75;;;5.32;100.00
48630;BME280;34426;52.180;4.462;2024-02-23T06:43:02;98873.19;;;5.35;100.00
48630;BME280;34426;52.180;4.462;2024-02-23T06:45:30;98876.50;;;5.38;100.00
48630;BME280;34426;52.180;4.462;2024-02-23T06:47:55;98878.72;;;5.35;100.00
48630;BME280;34426;52.180;4.462;2024-02-23T06:50:21;98887.59;;;5.38;100.00
48630;BME280;34426;52.180;4.462;2024-02-23T06:52:47;98879.53;;;5.41;100.00
48630;BME280;34426;52.180;4.462;2024-02-23T06:55:12;98877.59;;;5.42;100.00
48630;BME280;34426;52.180;4.462;2024-02-23T06:57:38;98880.09;;;5.43;100.00
48630;BME280;34426;52.180;4.462;2024-02-23T07:00:05;98872.31;;;5.45;100.00
48630;BME280;34426;52.180;4.462;2024-02-23T07:02:32;98877.59;;;5.42;100.00
48630;BME280;34426;52.180;4.462;2024-02-23T07:04:58;98884.81;;;5.43;100.00
48630;BME280;34426;52.180;4.462;2024-02-23T07:07:23;98876.50;;;5.38;100.00
48630;BME280;34426;52.180;4.462;2024-02-23T07:09:49;98877.59;;;5.42;100.00
48630;BME280;34426;52.180;4.462;2024-02-23T07:12:14;98878.16;;;5.39;100.00
48630;BME280;34426;52.180;4.462;2024-02-23T07:14:40;98882.59;;;5.40;100.00
48630;BME280;34426;52.180;4.462;2024-02-23T07:17:05;98874.00;;;5.36;100.00
48630;BME280;34426;52.180;4.462;2024-02-23T07:19:32;98869.03;;;5.33;100.00
48630;BME280;34426;52.180;4.462;2024-02-23T07:21:57;98871.25;;;5.31;100.00
48630;BME280;34426;52.180;4.462;2024-02-23T07:24:23;98875.97;;;5.30;100.00
48630;BME280;34426;52.180;4.462;2024-02-23T07:26:48;98866.84;;;5.25;100.00
48630;BME280;34426;52.180;4.462;2024-02-23T07:29:14;98871.28;;;5.21;100.00
48630;BME280;34426;52.180;4.462;2024-02-23T07:31:39;98871.00;;;5.22;100.00
48630;BME280;34426;52.180;4.462;2024-02-23T07:34:04;98867.72;;;5.15;100.00
48630;BME280;34426;52.180;4.462;2024-02-23T07:36:31;98863.84;;;5.11;100.00
48630;BME280;34426;52.180;4.462;2024-02-23T07:38:57;98874.94;;;5.11;100.00
48630;BME280;34426;52.180;4.462;2024-02-23T07:41:22;98859.44;;;5.00;100.00
48630;BME280;34426;52.180;4.462;2024-02-23T07:43:48;98865.00;;;4.95;100.00
48630;BME280;34426;52.180;4.462;2024-02-23T07:46:13;98870.53;;;4.90;100.00
48630;BME280;34426;52.180;4.462;2024-02-23T07:48:39;98867.50;;;4.81;100.00
48630;BME280;34426;52.180;4.462;2024-02-23T07:51:05;98868.94;;;4.63;100.00
48630;BME280;34426;52.180;4.462;2024-02-23T07:53:32;98867.81;;;4.54;100.00
48630;BME280;34426;52.180;4.462;2024-02-23T07:55:58;98878.34;;;4.42;100.00
48630;BME280;34426;52.180;4.462;2024-02-23T07:58:24;98866.72;;;4.35;100.00
48630;BME280;34426;52.180;4.462;2024-02-23T08:00:49;98868.94;;;4.28;100.00
48630;BME280;34426;52.180;4.462;2024-02-23T08:03:15;98859.53;;;4.29;100.00
48630;BME280;34426;52.180;4.462;2024-02-23T08:05:40;98865.63;;;4.26;100.00
48630;BME280;34426;52.180;4.462;2024-02-23T08:08:06;98867.28;;;4.27;100.00
48630;BME280;34426;52.180;4.462;2024-02-23T08:10:33;98849.84;;;4.26;100.00
48630;BME280;34426;52.180;4.462;2024-02-23T08:12:59;98847.91;;;4.32;100.00
48630;BME280;34426;52.180;4.462;2024-02-23T08:15:24;98855.63;;;4.35;100.00
48630;BME280;34426;52.180;4.462;2024-02-23T08:17:50;98850.38;;;4.39;100.00
48630;BME280;34426;52.180;4.462;2024-02-23T08:20:15;98859.50;;;4.39;100.00
48630;BME280;34426;52.180;4.462;2024-02-23T08:22:41;98867.28;;;4.42;100.00
48630;BME280;34426;52.180;4.462;2024-02-23T08:25:06;98862.28;;;4.49;100.00
48630;BME280;34426;52.180;4.462;2024-02-23T08:27:33;98857.31;;;4.51;100.00
48630;BME280;34426;52.180;4.462;2024-02-23T08:29:59;98844.84;;;4.54;100.00
48630;BME280;34426;52.180;4.462;2024-02-23T08:32:24;98855.09;;;4.53;100.00
48630;BME280;34426;52.180;4.462;2024-02-23T08:34:50;98860.06;;;4.56;100.00
48630;BME280;34426;52.180;4.462;2024-02-23T08:37:15;98855.09;;;4.58;100.00
48630;BME280;34426;52.180;4.462;2024-02-23T08:39:41;98850.66;;;4.57;100.00
48630;BME280;34426;52.180;4.462;2024-02-23T08:42:06;98847.91;;;4.57;100.00
48630;BME280;34426;52.180;4.462;2024-02-23T08:44:33;98849.00;;;4.56;100.00
48630;BME280;34426;52.180;4.462;2024-02-23T08:46:59;98849.00;;;4.56;100.00
48630;BME280;34426;52.180;4.462;2024-02-23T08:49:24;98851.50;;;4.58;100.00
48630;BME280;34426;52.180;4.462;2024-02-23T08:51:50;98845.41;;;4.56;100.00
48630;BME280;34426;52.180;4.462;2024-02-23T08:54:15;98840.97;;;4.55;100.00
48630;BME280;34426;52.180;4.462;2024-02-23T08:56:41;98841.25;;;4.58;100.00
48630;BME280;34426;52.180;4.462;2024-02-23T08:59:06;98850.09;;;4.60;100.00
48630;BME280;34426;52.180;4.462;2024-02-23T09:01:33;98840.69;;;4.61;100.00
48630;BME280;34426;52.180;4.462;2024-02-23T09:03:58;98835.72;;;4.63;100.00
48630;BME280;34426;52.180;4.462;2024-02-23T09:06:24;98847.34;;;4.65;100.00
48630;BME280;34426;52.180;4.462;2024-02-23T09:08:49;98847.59;;;4.69;100.00
48630;BME280;34426;52.180;4.462;2024-02-23T09:11:15;98843.97;;;4.79;100.00
48630;BME280;34426;52.180;4.462;2024-02-23T09:13:40;98845.63;;;4.80;100.00
48630;BME280;34426;52.180;4.462;2024-02-23T09:16:06;98852.81;;;4.86;100.00
48630;BME280;34426;52.180;4.462;2024-02-23T09:18:33;98847.81;;;4.93;100.00
48630;BME280;34426;52.180;4.462;2024-02-23T09:20:59;98854.47;;;4.97;100.00
48630;BME280;34426;52.180;4.462;2024-02-23T09:23:25;98857.78;;;4.99;100.00
48630;BME280;34426;52.180;4.462;2024-02-23T09:25:50;98840.06;;;4.95;100.00
48630;BME280;34426;52.180;4.462;2024-02-23T09:28:15;98834.78;;;4.98;100.00
48630;BME280;34426;52.180;4.462;2024-02-23T09:30:41;98832.84;;;5.04;100.00
48630;BME280;34426;52.180;4.462;2024-02-23T09:33:06;98847.78;;;5.08;100.00
48630;BME280;34426;52.180;4.462;2024-02-23T09:35:33;98848.88;;;5.17;100.00
48630;BME280;34426;52.180;4.462;2024-02-23T09:37:59;98841.63;;;5.21;100.00
48630;BME280;34426;52.180;4.462;2024-02-23T09:40:24;98864.06;;;5.25;100.00
48630;BME280;34426;52.180;4.462;2024-02-23T09:42:55;98855.47;;;5.31;100.00
48630;BME280;34426;52.180;4.462;2024-02-23T09:45:21;98844.59;;;5.45;100.00
48630;BME280;34426;52.180;4.462;2024-02-23T09:47:47;98843.72;;;5.55;100.00
48630;BME280;34426;52.180;4.462;2024-02-23T09:50:13;98865.53;;;5.72;100.00
48630;BME280;34426;52.180;4.462;2024-02-23T09:52:40;98844.13;;;5.82;100.00
48630;BME280;34426;52.180;4.462;2024-02-23T09:55:06;98867.13;;;5.83;100.00
48630;BME280;34426;52.180;4.462;2024-02-23T09:57:31;98881.00;;;5.93;100.00
48630;BME280;34426;52.180;4.462;2024-02-23T09:59:57;98860.44;;;5.99;100.00
48630;BME280;34426;52.180;4.462;2024-02-23T10:02:23;98861.50;;;6.03;100.00
48630;BME280;34426;52.180;4.462;2024-02-23T10:04:49;98875.31;;;6.08;100.00
48630;BME280;34426;52.180;4.462;2024-02-23T10:07:16;98881.72;;;6.09;100.00
48630;BME280;34426;52.180;4.462;2024-02-23T10:09:43;98868.34;;;6.16;100.00
48630;BME280;34426;52.180;4.462;2024-02-23T10:12:09;98871.13;;;6.16;100.00
48630;BME280;34426;52.180;4.462;2024-02-23T10:14:34;98883.88;;;6.17;100.00
48630;BME280;34426;52.180;4.462;2024-02-23T10:17:00;98841.41;;;6.16;100.00
48630;BME280;34426;52.180;4.462;2024-02-23T10:19:25;98870.81;;;6.22;100.00
48630;BME280;34426;52.180;4.462;2024-02-23T10:21:51;98886.88;;;6.25;100.00
48630;BME280;34426;52.180;4.462;2024-02-23T10:24:17;98896.56;;;6.28;100.00
48630;BME280;34426;52.180;4.462;2024-02-23T10:26:44;98903.47;;;6.36;100.00
48630;BME280;34426;52.180;4.462;2024-02-23T10:29:10;98902.59;;;6.40;100.00
48630;BME280;34426;52.180;4.462;2024-02-23T10:31:35;98917.53;;;6.49;100.00
48630;BME280;34426;52.180;4.462;2024-02-23T10:34:07;98912.75;;;6.55;100.00
48630;BME280;34426;52.180;4.462;2024-02-23T10:36:33;98918.06;;;6.51;100.00
48630;BME280;34426;52.180;4.462;2024-02-23T10:39:02;98923.16;;;6.39;100.00
48630;BME280;34426;52.180;4.462;2024-02-23T10:41:28;98924.91;;;6.25;100.00
48630;BME280;34426;52.180;4.462;2024-02-23T10:44:01;98919.34;;;6.25;100.00
48630;BME280;34426;52.180;4.462;2024-02-23T10:46:27;98920.94;;;6.41;100.00
48630;BME280;34426;52.180;4.462;2024-02-23T10:48:54;98922.88;;;6.41;100.00
48630;BME280;34426;52.180;4.462;2024-02-23T10:51:21;98927.75;;;6.54;100.00
48630;BME280;34426;52.180;4.462;2024-02-23T10:53:46;98941.28;;;6.65;100.00
48630;BME280;34426;52.180;4.462;2024-02-23T10:56:13;98957.63;;;6.72;100.00
48630;BME280;34426;52.180;4.462;2024-02-23T10:58:39;98945.69;;;6.72;100.00
48630;BME280;34426;52.180;4.462;2024-02-23T11:01:07;98948.13;;;6.78;100.00
48630;BME280;34426;52.180;4.462;2024-02-23T11:03:36;98954.50;;;6.84;100.00
48630;BME280;34426;52.180;4.462;2024-02-23T11:06:05;98975.88;;;6.83;100.00
48630;BME280;34426;52.180;4.462;2024-02-23T11:08:32;98966.22;;;6.76;100.00
48630;BME280;34426;52.180;4.462;2024-02-23T11:11:07;98969.00;;;6.76;100.00
48630;BME280;34426;52.180;4.462;2024-02-23T11:13:34;98953.41;;;6.80;100.00
48630;BME280;34426;52.180;4.462;2024-02-23T11:16:03;98963.38;;;6.86;100.00
48630;BME280;34426;52.180;4.462;2024-02-23T11:18:30;98964.91;;;6.97;100.00
48630;BME280;34426;52.180;4.462;2024-02-23T11:20:59;98962.13;;;6.97;100.00
48630;BME280;34426;52.180;4.462;2024-02-23T11:23:25;98973.41;;;6.82;100.00
48630;BME280;34426;52.180;4.462;2024-02-23T11:26:04;98967.84;;;6.82;100.00
48630;BME280;34426;52.180;4.462;2024-02-23T11:28:30;98970.63;;;6.82;100.00
48630;BME280;34426;52.180;4.462;2024-02-23T11:30:56;98982.56;;;6.82;100.00
48630;BME280;34426;52.180;4.462;2024-02-23T11:33:28;98976.13;;;6.87;100.00
48630;BME280;34426;52.180;4.462;2024-02-23T11:36:04;98965.31;;;6.85;100.00
48630;BME280;34426;52.180;4.462;2024-02-23T11:38:30;98973.00;;;6.93;100.00
48630;BME280;34426;52.180;4.462;2024-02-23T11:40:57;98967.91;;;7.06;100.00
48630;BME280;34426;52.180;4.462;2024-02-23T11:43:23;98975.56;;;7.19;100.00
48630;BME280;34426;52.180;4.462;2024-02-23T11:45:48;98976.41;;;7.19;100.00
48630;BME280;34426;52.180;4.462;2024-02-23T11:48:14;98982.78;;;7.49;100.00
48630;BME280;34426;52.180;4.462;2024-02-23T11:50:39;98971.88;;;7.28;100.00
48630;BME280;34426;52.180;4.462;2024-02-23T11:53:06;98987.16;;;7.31;100.00
48630;BME280;34426;52.180;4.462;2024-02-23T11:55:31;98992.34;;;7.38;100.00
48630;BME280;34426;52.180;4.462;2024-02-23T11:57:57;98992.44;;;7.56;100.00
48630;BME280;34426;52.180;4.462;2024-02-23T12:00:23;98985.06;;;7.71;100.00
48630;BME280;34426;52.180;4.462;2024-02-23T12:02:48;98985.06;;;7.71;100.00
48630;BME280;34426;52.180;4.462;2024-02-23T12:05:14;98983.22;;;8.09;99.36
48630;BME280;34426;52.180;4.462;2024-02-23T12:07:40;98996.34;;;8.03;98.71
48630;BME280;34426;52.180;4.462;2024-02-23T12:10:07;98983.16;;;7.90;98.55
48630;BME280;34426;52.180;4.462;2024-02-23T12:12:33;98998.44;;;7.92;98.21
48630;BME280;34426;52.180;4.462;2024-02-23T12:14:59;98993.09;;;7.96;97.61
48630;BME280;34426;52.180;4.462;2024-02-23T12:17:25;98994.47;;;7.98;98.65
48630;BME280;34426;52.180;4.462;2024-02-23T12:19:50;98987.28;;;7.92;98.38
48630;BME280;34426;52.180;4.462;2024-02-23T12:22:24;98994.88;;;8.11;97.60
48630;BME280;34426;52.180;4.462;2024-02-23T12:24:50;98999.44;;;8.01;97.79
48630;BME280;34426;52.180;4.462;2024-02-23T12:27:18;99004.47;;;7.99;97.10
48630;BME280;34426;52.180;4.462;2024-02-23T12:29:51;99006.97;;;8.01;97.26
48630;BME280;34426;52.180;4.462;2024-02-23T12:32:19;99003.75;;;8.13;97.04
48630;BME280;34426;52.180;4.462;2024-02-23T12:34:45;99004.91;;;8.30;95.05
48630;BME280;34426;52.180;4.462;2024-02-23T12:37:14;99009.47;;;8.45;93.75
48630;BME280;34426;52.180;4.462;2024-02-23T12:39:40;98997.44;;;8.50;93.78
48630;BME280;34426;52.180;4.462;2024-02-23T12:42:08;99003.97;;;8.40;93.82
48630;BME280;34426;52.180;4.462;2024-02-23T12:44:35;99016.66;;;8.51;94.41
48630;BME280;34426;52.180;4.462;2024-02-23T12:47:00;99018.97;;;8.44;94.66
48630;BME280;34426;52.180;4.462;2024-02-23T12:49:26;99016.19;;;8.44;92.68
48630;BME280;34426;52.180;4.462;2024-02-23T12:51:51;99016.78;;;8.41;92.74
48630;BME280;34426;52.180;4.462;2024-02-23T12:54:17;99023.53;;;8.35;93.96
48630;BME280;34426;52.180;4.462;2024-02-23T12:56:42;99037.47;;;8.35;92.86
48630;BME280;34426;52.180;4.462;2024-02-23T12:59:08;99039.31;;;8.21;91.69